Time;durP1;ratioP1;P1;durP2;ratioP2;P2;SDS_P1;SDS_P2;PMS_P1;PMS_P2;Temp;Humidity;BMP_temperature;BMP_pressure;BME280_temperature;BME280_humidity;BME280_pressure;Samples;Min_cycle;Max_cycle;Signal;HPM_P1;HPM_P2
2022/10/17 00:02:20;;;;;;;11.07;8.48;;;;;;;;;;5041877;28;20024;-78
2022/10/17 00:04:46;;;;;;;13.80;8.00;;;;;;;;;;5041861;28;20098;-77
2022/10/17 00:07:12;;;;;;;12.43;8.02;;;;;;;;;;5041311;28;20036;-77
2022/10/17 00:09:42;;;;;;;10.90;8.02;;;;;;;;;;5041078;28;20025;-77
2022/10/17 00:12:08;;;;;;;12.07;8.00;;;;;;;;;;5058832;28;20029;-77
2022/10/17 00:14:34;;;;;;;12.07;8.07;;;;;;;;;;5041040;28;20021;-77
2022/10/17 00:17:02;;;;;;;10.18;7.68;;;;;;;;;;5041579;28;20021;-76
2022/10/17 00:19:28;;;;;;;16.30;8.30;;;;;;;;;;5059141;28;20028;-76
2022/10/17 00:21:54;;;;;;;11.35;7.85;;;;;;;;;;5040982;28;20701;-76
2022/10/17 00:24:20;;;;;;;10.98;8.02;;;;;;;;;;5041239;28;20422;-77
2022/10/17 00:26:46;;;;;;;12.48;8.13;;;;;;;;;;5043719;28;20084;-78
2022/10/17 00:29:12;;;;;;;11.43;8.02;;;;;;;;;;5044180;28;20511;-77
2022/10/17 00:31:38;;;;;;;10.48;8.55;;;;;;;;;;5058512;28;20086;-77
2022/10/17 00:34:07;;;;;;;9.75;7.65;;;;;;;;;;5040956;28;20029;-77
2022/10/17 00:36:33;;;;;;;12.85;8.75;;;;;;;;;;5041066;28;20068;-77
2022/10/17 00:38:59;;;;;;;9.63;7.70;;;;;;;;;;5037700;28;20029;-77
2022/10/17 00:41:27;;;;;;;11.43;8.73;;;;;;;;;;5057060;28;20036;-77
2022/10/17 00:43:53;;;;;;;12.43;8.60;;;;;;;;;;5057828;28;20111;-78
2022/10/17 00:46:20;;;;;;;10.65;8.32;;;;;;;;;;5040274;28;20033;-76
2022/10/17 00:48:47;;;;;;;9.05;7.60;;;;;;;;;;5057699;28;20025;-77
2022/10/17 00:51:14;;;;;;;12.52;9.30;;;;;;;;;;5057567;28;20107;-77
2022/10/17 00:53:40;;;;;;;9.93;8.45;;;;;;;;;;5039962;28;20051;-76
2022/10/17 00:56:06;;;;;;;10.93;8.60;;;;;;;;;;5039618;28;20368;-76
2022/10/17 00:58:32;;;;;;;10.65;8.25;;;;;;;;;;5026783;28;20031;-77
2022/10/17 01:00:58;;;;;;;11.55;8.63;;;;;;;;;;5039921;28;20089;-76
2022/10/17 01:03:24;;;;;;;11.43;7.93;;;;;;;;;;5040601;28;20119;-77
2022/10/17 01:05:52;;;;;;;12.77;8.80;;;;;;;;;;5039550;28;20025;-77
2022/10/17 01:08:18;;;;;;;13.90;8.82;;;;;;;;;;5039640;28;20047;-77
2022/10/17 01:10:47;;;;;;;13.32;9.90;;;;;;;;;;5035098;28;20029;-77
2022/10/17 01:13:18;;;;;;;17.02;9.60;;;;;;;;;;5035304;28;20049;-79
2022/10/17 01:15:59;;;;;;;13.48;8.98;;;;;;;;;;5018952;28;20029;-77
2022/10/17 01:18:42;;;;;;;17.70;8.65;;;;;;;;;;5035046;28;20030;-78
2022/10/17 01:21:08;;;;;;;;;;;;;;;;;;5035703;28;20056;-80
2022/10/17 01:23:37;;;;;;;15.13;10.18;;;;;;;;;;5019003;28;20390;-77
2022/10/17 01:26:15;;;;;;;15.45;10.13;;;;;;;;;;5035083;28;20041;-77
2022/10/17 01:28:41;;;;;;;12.82;10.07;;;;;;;;;;5019479;28;20049;-76
2022/10/17 01:31:14;;;;;;;11.57;9.48;;;;;;;;;;5013372;28;20139;-77
2022/10/17 01:33:49;;;;;;;12.88;9.32;;;;;;;;;;5030879;28;20048;-77
2022/10/17 01:36:27;;;;;;;12.98;9.80;;;;;;;;;;5014443;28;20033;-76
2022/10/17 01:38:58;;;;;;;12.98;9.38;;;;;;;;;;5016103;28;20099;-77
2022/10/17 01:41:34;;;;;;;13.20;9.77;;;;;;;;;;5037312;28;20041;-76
2022/10/17 01:44:24;;;;;;;13.80;9.38;;;;;;;;;;5033618;28;20176;-77
2022/10/17 01:46:51;;;;;;;15.50;9.77;;;;;;;;;;5037230;28;20193;-76
2022/10/17 01:49:19;;;;;;;12.80;9.98;;;;;;;;;;5048229;28;20021;-77
2022/10/17 01:51:56;;;;;;;16.42;10.52;;;;;;;;;;5047112;28;20094;-76
2022/10/17 01:54:24;;;;;;;16.92;10.05;;;;;;;;;;5047569;28;20354;-76
2022/10/17 01:56:54;;;;;;;17.02;9.85;;;;;;;;;;5029341;28;21655;-77
2022/10/17 01:59:23;;;;;;;14.87;9.87;;;;;;;;;;5029827;28;20045;-76
2022/10/17 02:01:53;;;;;;;10.88;9.10;;;;;;;;;;5029163;28;20044;-76
2022/10/17 02:04:19;;;;;;;11.00;9.10;;;;;;;;;;5027565;28;20091;-76
2022/10/17 02:06:45;;;;;;;13.30;9.90;;;;;;;;;;5046874;28;20033;-76
2022/10/17 02:09:32;;;;;;;13.30;9.03;;;;;;;;;;5030201;28;20036;-76
2022/10/17 02:12:06;;;;;;;16.35;9.75;;;;;;;;;;5049098;28;20445;-76
2022/10/17 02:14:39;;;;;;;13.53;9.47;;;;;;;;;;5030726;28;20025;-77
2022/10/17 02:17:11;;;;;;;17.08;9.77;;;;;;;;;;5029952;28;20033;-76
2022/10/17 02:19:37;;;;;;;13.20;9.38;;;;;;;;;;5033183;28;20040;-76
2022/10/17 02:22:26;;;;;;;16.20;10.30;;;;;;;;;;5032038;28;20389;-78
2022/10/17 02:25:02;;;;;;;13.65;9.27;;;;;;;;;;5031276;28;20033;-77
2022/10/17 02:27:28;;;;;;;18.05;9.52;;;;;;;;;;5034643;28;20047;-77
2022/10/17 02:30:27;;;;;;;12.13;9.85;;;;;;;;;;5031326;28;20028;-76
2022/10/17 02:32:57;;;;;;;14.27;9.20;;;;;;;;;;4992023;28;20481;-76
2022/10/17 02:35:25;;;;;;;14.63;9.90;;;;;;;;;;5031625;28;20047;-76
2022/10/17 02:37:54;;;;;;;17.20;10.13;;;;;;;;;;5028911;28;20440;-76
2022/10/17 02:40:22;;;;;;;14.47;9.93;;;;;;;;;;5048430;28;20374;-77
2022/10/17 02:42:49;;;;;;;11.15;9.38;;;;;;;;;;5048656;28;20040;-77
2022/10/17 02:45:18;;;;;;;14.70;10.23;;;;;;;;;;5035082;28;20457;-77
2022/10/17 02:47:52;;;;;;;14.38;10.13;;;;;;;;;;5031598;28;20029;-77
2022/10/17 02:50:22;;;;;;;15.33;9.23;;;;;;;;;;5046068;28;20566;-76
2022/10/17 02:52:52;;;;;;;20.50;9.87;;;;;;;;;;5030374;28;20496;-77
2022/10/17 02:55:20;;;;;;;21.33;9.93;;;;;;;;;;5046961;28;20507;-76
2022/10/17 02:57:46;;;;;;;16.47;9.50;;;;;;;;;;5029402;28;20025;-76
2022/10/17 03:00:13;;;;;;;17.23;9.07;;;;;;;;;;5030831;28;20040;-76
2022/10/17 03:02:40;;;;;;;15.40;9.77;;;;;;;;;;5045418;28;20036;-76
2022/10/17 03:05:07;;;;;;;13.17;9.10;;;;;;;;;;5030213;28;20649;-77
2022/10/17 03:07:33;;;;;;;14.63;9.40;;;;;;;;;;5028333;28;20033;-76
2022/10/17 03:09:59;;;;;;;17.83;10.37;;;;;;;;;;5030090;28;20034;-76
2022/10/17 03:12:27;;;;;;;19.67;10.25;;;;;;;;;;5031121;28;20031;-76
2022/10/17 03:14:53;;;;;;;12.65;9.20;;;;;;;;;;5031731;28;20641;-76
2022/10/17 03:17:19;;;;;;;18.77;10.30;;;;;;;;;;5028450;28;20025;-77
2022/10/17 03:19:45;;;;;;;17.47;10.00;;;;;;;;;;5051102;28;20511;-77
2022/10/17 03:22:12;;;;;;;13.37;10.23;;;;;;;;;;5031539;28;20037;-78
2022/10/17 03:24:38;;;;;;;16.48;9.65;;;;;;;;;;5045986;28;20033;-76
2022/10/17 03:27:04;;;;;;;15.93;9.60;;;;;;;;;;5050062;28;20115;-76
2022/10/17 03:29:30;;;;;;;14.60;8.60;;;;;;;;;;5051783;28;20040;-76
2022/10/17 03:31:56;;;;;;;15.13;9.43;;;;;;;;;;5033835;28;20037;-76
2022/10/17 03:34:22;;;;;;;14.73;9.23;;;;;;;;;;5031691;28;20043;-76
2022/10/17 03:36:48;;;;;;;10.45;8.45;;;;;;;;;;5037568;28;20029;-76
2022/10/17 03:39:14;;;;;;;14.25;9.30;;;;;;;;;;5040927;28;20032;-77
2022/10/17 03:41:40;;;;;;;13.45;10.15;;;;;;;;;;5040621;28;20041;-77
2022/10/17 03:44:06;;;;;;;13.32;9.65;;;;;;;;;;5037662;28;20029;-76
2022/10/17 03:46:32;;;;;;;12.10;8.38;;;;;;;;;;5040540;28;20036;-77
2022/10/17 03:48:58;;;;;;;13.15;8.75;;;;;;;;;;5040374;28;20450;-78
2022/10/17 03:51:24;;;;;;;11.77;8.13;;;;;;;;;;5040624;28;20048;-77
2022/10/17 03:53:50;;;;;;;10.88;8.05;;;;;;;;;;5040604;28;20049;-77
2022/10/17 03:56:18;;;;;;;14.00;8.95;;;;;;;;;;5058008;28;20025;-77
2022/10/17 03:58:44;;;;;;;10.43;7.97;;;;;;;;;;5040870;28;20021;-76
2022/10/17 04:01:11;;;;;;;15.13;8.73;;;;;;;;;;5040254;28;20093;-76
2022/10/17 04:03:40;;;;;;;12.05;7.88;;;;;;;;;;5040262;28;20027;-76
2022/10/17 04:06:07;;;;;;;14.93;8.40;;;;;;;;;;5040232;28;20021;-77
2022/10/17 04:08:33;;;;;;;11.48;8.20;;;;;;;;;;5040349;28;20033;-77
2022/10/17 04:11:03;;;;;;;11.70;8.20;;;;;;;;;;5042399;28;20382;-78
2022/10/17 04:13:33;;;;;;;11.75;8.40;;;;;;;;;;5043650;28;20047;-77
2022/10/17 04:16:00;;;;;;;14.10;8.95;;;;;;;;;;5038702;28;20166;-77
2022/10/17 04:18:28;;;;;;;14.57;8.60;;;;;;;;;;5051451;28;20025;-77
2022/10/17 04:20:54;;;;;;;12.63;8.13;;;;;;;;;;5043197;28;20025;-77
2022/10/17 04:23:20;;;;;;;15.20;9.05;;;;;;;;;;5040153;28;20048;-77
2022/10/17 04:25:46;;;;;;;11.60;8.05;;;;;;;;;;5040041;28;20025;-77
2022/10/17 04:28:12;;;;;;;12.88;8.68;;;;;;;;;;5039994;28;20029;-77
2022/10/17 04:30:39;;;;;;;12.40;7.95;;;;;;;;;;5039004;28;20098;-77
2022/10/17 04:33:05;;;;;;;12.13;8.27;;;;;;;;;;5039732;28;20036;-77
2022/10/17 04:35:31;;;;;;;10.13;8.35;;;;;;;;;;5039684;28;20373;-78
2022/10/17 04:37:57;;;;;;;12.45;8.63;;;;;;;;;;5039852;28;20083;-77
2022/10/17 04:40:23;;;;;;;13.10;8.25;;;;;;;;;;5039854;28;20033;-77
2022/10/17 04:42:51;;;;;;;16.02;9.25;;;;;;;;;;5040618;28;20445;-77
2022/10/17 04:45:17;;;;;;;13.48;8.68;;;;;;;;;;5039920;28;20343;-77
2022/10/17 04:47:43;;;;;;;12.68;9.23;;;;;;;;;;5037972;28;20099;-76
2022/10/17 04:50:09;;;;;;;11.90;8.13;;;;;;;;;;5054366;28;20044;-77
2022/10/17 04:52:38;;;;;;;11.00;7.90;;;;;;;;;;5039796;28;20025;-77
2022/10/17 04:55:05;;;;;;;13.45;8.38;;;;;;;;;;5041849;28;20090;-77
2022/10/17 04:57:34;;;;;;;10.70;8.13;;;;;;;;;;5039809;28;20029;-77
2022/10/17 05:00:00;;;;;;;12.70;7.65;;;;;;;;;;5035421;28;20028;-76
2022/10/17 05:02:26;;;;;;;11.25;7.65;;;;;;;;;;5039875;28;20033;-78
2022/10/17 05:04:52;;;;;;;12.88;7.30;;;;;;;;;;5041534;28;20029;-78
2022/10/17 05:07:18;;;;;;;10.23;6.88;;;;;;;;;;5039222;28;20029;-77
2022/10/17 05:09:44;;;;;;;17.05;7.47;;;;;;;;;;5039615;28;20417;-77
2022/10/17 05:12:10;;;;;;;13.88;8.48;;;;;;;;;;5043211;28;20029;-77
2022/10/17 05:14:36;;;;;;;12.20;7.57;;;;;;;;;;5056952;28;20400;-78
2022/10/17 05:17:02;;;;;;;12.55;7.40;;;;;;;;;;5039407;28;20338;-77
2022/10/17 05:19:28;;;;;;;12.60;6.85;;;;;;;;;;5039086;28;20032;-78
2022/10/17 05:21:54;;;;;;;13.23;7.20;;;;;;;;;;5056480;28;20025;-77
2022/10/17 05:24:20;;;;;;;9.70;6.85;;;;;;;;;;5056351;28;20473;-78
2022/10/17 05:26:46;;;;;;;12.30;8.18;;;;;;;;;;5039491;28;20369;-77
2022/10/17 05:29:12;;;;;;;11.45;8.23;;;;;;;;;;5039932;28;20024;-77
2022/10/17 05:31:38;;;;;;;11.15;6.90;;;;;;;;;;5038742;28;20033;-78
2022/10/17 05:34:04;;;;;;;13.48;6.60;;;;;;;;;;5038902;28;20033;-77
2022/10/17 05:36:30;;;;;;;11.10;6.57;;;;;;;;;;5039106;28;20120;-77
2022/10/17 05:38:56;;;;;;;14.05;6.97;;;;;;;;;;5056259;28;20426;-77
2022/10/17 05:41:22;;;;;;;13.60;6.45;;;;;;;;;;5038082;28;20033;-77
2022/10/17 05:43:49;;;;;;;10.35;6.22;;;;;;;;;;5038702;28;20036;-77
2022/10/17 05:46:15;;;;;;;9.90;5.97;;;;;;;;;;5038298;28;20040;-77
2022/10/17 05:48:41;;;;;;;8.98;6.10;;;;;;;;;;5018612;28;20091;-76
2022/10/17 05:51:08;;;;;;;10.95;6.93;;;;;;;;;;5038138;28;20426;-77
2022/10/17 05:53:36;;;;;;;13.02;6.75;;;;;;;;;;5038107;28;20120;-78
2022/10/17 05:56:04;;;;;;;10.07;6.75;;;;;;;;;;5038202;28;20078;-77
2022/10/17 05:58:30;;;;;;;14.65;6.53;;;;;;;;;;5056096;28;20033;-77
2022/10/17 06:01:00;;;;;;;14.48;7.50;;;;;;;;;;5038072;28;20021;-77
2022/10/17 06:03:28;;;;;;;10.18;6.65;;;;;;;;;;5055795;28;20033;-78
2022/10/17 06:05:55;;;;;;;10.55;7.35;;;;;;;;;;5038080;28;20028;-78
2022/10/17 06:08:21;;;;;;;18.23;8.93;;;;;;;;;;5038639;28;20028;-78
2022/10/17 06:10:50;;;;;;;14.60;8.18;;;;;;;;;;5055937;28;20040;-77
2022/10/17 06:13:17;;;;;;;16.40;6.57;;;;;;;;;;5038256;28;20033;-78
2022/10/17 06:15:44;;;;;;;7.53;6.65;;;;;;;;;;5038456;28;20024;-78
2022/10/17 06:18:13;;;;;;;9.48;6.90;;;;;;;;;;5038147;28;20099;-78
2022/10/17 06:20:41;;;;;;;13.48;7.20;;;;;;;;;;5037812;28;20048;-77
2022/10/17 06:23:07;;;;;;;10.57;7.60;;;;;;;;;;5055636;28;20039;-78
2022/10/17 06:25:33;;;;;;;11.85;8.02;;;;;;;;;;5038851;28;20509;-78
2022/10/17 06:27:59;;;;;;;14.63;10.45;;;;;;;;;;5038574;28;20028;-78
2022/10/17 06:30:28;;;;;;;10.70;8.48;;;;;;;;;;5036010;28;20021;-78
2022/10/17 06:32:56;;;;;;;17.92;10.07;;;;;;;;;;5055427;28;20021;-79
2022/10/17 06:35:22;;;;;;;14.60;9.60;;;;;;;;;;5038863;28;20120;-79
2022/10/17 06:37:48;;;;;;;12.27;7.93;;;;;;;;;;5038482;28;20037;-78
2022/10/17 06:40:16;;;;;;;15.98;6.85;;;;;;;;;;5038489;28;20029;-78
2022/10/17 06:42:42;;;;;;;11.40;6.25;;;;;;;;;;5040184;28;20039;-78
2022/10/17 06:45:08;;;;;;;12.23;5.78;;;;;;;;;;5041494;28;20052;-78
2022/10/17 06:47:35;;;;;;;11.75;5.75;;;;;;;;;;5033324;28;20038;-78
2022/10/17 06:50:01;;;;;;;12.10;5.95;;;;;;;;;;5032636;28;20033;-78
2022/10/17 06:52:27;;;;;;;7.38;5.28;;;;;;;;;;5038179;28;20045;-78
2022/10/17 06:54:53;;;;;;;12.30;5.28;;;;;;;;;;5016252;28;20088;-78
2022/10/17 06:57:19;;;;;;;10.88;4.93;;;;;;;;;;5033133;28;20037;-78
2022/10/17 06:59:45;;;;;;;10.50;4.43;;;;;;;;;;5033275;28;20033;-78
2022/10/17 07:02:11;;;;;;;9.57;5.43;;;;;;;;;;5032333;28;20041;-79
2022/10/17 07:04:37;;;;;;;9.65;5.28;;;;;;;;;;5033111;28;20033;-78
2022/10/17 07:07:04;;;;;;;8.27;4.40;;;;;;;;;;5033704;28;20351;-77
2022/10/17 07:09:30;;;;;;;7.90;4.40;;;;;;;;;;5033046;28;20025;-78
2022/10/17 07:11:56;;;;;;;13.82;5.28;;;;;;;;;;5016842;28;20156;-78
2022/10/17 07:14:30;;;;;;;10.43;4.63;;;;;;;;;;5019508;28;20032;-78
2022/10/17 07:16:58;;;;;;;7.78;4.10;;;;;;;;;;5033819;28;20105;-78
2022/10/17 07:19:24;;;;;;;9.30;4.63;;;;;;;;;;5023011;28;20044;-78
2022/10/17 07:21:50;;;;;;;9.00;3.75;;;;;;;;;;5039988;28;20122;-78
2022/10/17 07:24:16;;;;;;;8.90;4.03;;;;;;;;;;5037943;28;20368;-78
2022/10/17 07:26:44;;;;;;;7.35;3.35;;;;;;;;;;5037679;28;20025;-78
2022/10/17 07:29:10;;;;;;;8.32;4.50;;;;;;;;;;5037736;28;20421;-78
2022/10/17 07:31:36;;;;;;;8.32;4.22;;;;;;;;;;5037475;28;20116;-79
2022/10/17 07:34:05;;;;;;;9.02;3.58;;;;;;;;;;5058182;28;20026;-78
2022/10/17 07:36:31;;;;;;;7.18;3.50;;;;;;;;;;5032418;28;20041;-78
2022/10/17 07:38:57;;;;;;;7.55;4.10;;;;;;;;;;5030661;28;20365;-78
2022/10/17 07:41:23;;;;;;;6.85;3.40;;;;;;;;;;5053909;28;20095;-78
2022/10/17 07:43:49;;;;;;;9.55;3.45;;;;;;;;;;5032850;28;20079;-78
2022/10/17 07:46:15;;;;;;;5.07;4.10;;;;;;;;;;5034307;28;20077;-77
2022/10/17 07:48:41;;;;;;;9.20;4.03;;;;;;;;;;5032747;28;20032;-78
2022/10/17 07:51:10;;;;;;;9.98;3.83;;;;;;;;;;5029238;28;20112;-78
2022/10/17 07:53:37;;;;;;;9.88;4.55;;;;;;;;;;5032006;28;20035;-77
2022/10/17 07:56:05;;;;;;;8.48;3.90;;;;;;;;;;5050192;28;20049;-76
2022/10/17 07:58:31;;;;;;;5.05;3.70;;;;;;;;;;5031633;28;20502;-78
2022/10/17 08:01:00;;;;;;;7.43;3.78;;;;;;;;;;5050152;28;20373;-77
2022/10/17 08:03:26;;;;;;;10.60;3.42;;;;;;;;;;5034890;28;20120;-78
2022/10/17 08:05:56;;;;;;;8.98;3.35;;;;;;;;;;5035593;28;20040;-78
2022/10/17 08:08:22;;;;;;;9.13;3.25;;;;;;;;;;5036005;28;20025;-78
2022/10/17 08:10:48;;;;;;;8.43;3.28;;;;;;;;;;5038070;28;20025;-77
2022/10/17 08:13:14;;;;;;;14.93;4.60;;;;;;;;;;5037608;28;20032;-78
2022/10/17 08:15:42;;;;;;;4.53;2.80;;;;;;;;;;5037659;28;20025;-78
2022/10/17 08:18:09;;;;;;;8.00;3.45;;;;;;;;;;5035854;28;20414;-78
2022/10/17 08:20:35;;;;;;;10.98;3.20;;;;;;;;;;5035567;28;20044;-78
2022/10/17 08:23:03;;;;;;;6.30;2.88;;;;;;;;;;5036511;28;20055;-77
2022/10/17 08:25:32;;;;;;;7.05;2.75;;;;;;;;;;5035310;28;20029;-78
2022/10/17 08:27:58;;;;;;;9.70;3.22;;;;;;;;;;5037660;28;20032;-78
2022/10/17 08:30:24;;;;;;;7.43;3.45;;;;;;;;;;5035969;28;20029;-78
2022/10/17 08:32:56;;;;;;;5.13;2.65;;;;;;;;;;5036101;28;20040;-79
2022/10/17 08:35:24;;;;;;;4.70;2.83;;;;;;;;;;5031258;28;20590;-77
2022/10/17 08:37:50;;;;;;;7.85;3.15;;;;;;;;;;5053359;28;20025;-77
2022/10/17 08:40:20;;;;;;;7.13;2.90;;;;;;;;;;5027665;28;20021;-78
2022/10/17 08:42:49;;;;;;;5.82;2.70;;;;;;;;;;5053724;28;20550;-77
2022/10/17 08:45:34;;;;;;;9.88;2.80;;;;;;;;;;5035605;28;20044;-78
2022/10/17 08:48:01;;;;;;;5.90;2.50;;;;;;;;;;5029385;28;20032;-78
2022/10/17 08:50:27;;;;;;;7.32;3.55;;;;;;;;;;5030766;28;20127;-78
2022/10/17 08:52:55;;;;;;;5.25;3.05;;;;;;;;;;5036166;28;20791;-78
2022/10/17 08:55:34;;;;;;;4.32;3.10;;;;;;;;;;5053537;28;20021;-77
2022/10/17 08:58:00;;;;;;;10.40;3.40;;;;;;;;;;5052476;28;20037;-78
2022/10/17 09:00:28;;;;;;;5.03;2.80;;;;;;;;;;5036121;28;20197;-78
2022/10/17 09:03:12;;;;;;;6.57;3.20;;;;;;;;;;5051020;28;20029;-78
2022/10/17 09:05:54;;;;;;;5.60;2.55;;;;;;;;;;5050683;28;20112;-78
2022/10/17 09:08:24;;;;;;;5.35;2.53;;;;;;;;;;5053102;28;20052;-79
2022/10/17 09:11:05;;;;;;;9.50;2.92;;;;;;;;;;5053411;28;20043;-78
2022/10/17 09:13:51;;;;;;;17.35;3.35;;;;;;;;;;5032242;28;20060;-77
2022/10/17 09:16:32;;;;;;;11.70;2.53;;;;;;;;;;5034009;28;20511;-78
2022/10/17 09:19:01;;;;;;;8.07;3.07;;;;;;;;;;5035140;28;20033;-78
2022/10/17 09:21:33;;;;;;;8.57;2.92;;;;;;;;;;5033561;28;20047;-78
2022/10/17 09:24:01;;;;;;;6.95;2.50;;;;;;;;;;5037221;28;20021;-78
2022/10/17 09:26:27;;;;;;;4.28;2.40;;;;;;;;;;5037713;28;20052;-77
2022/10/17 09:28:55;;;;;;;4.85;2.65;;;;;;;;;;5038208;28;20087;-77
2022/10/17 09:31:44;;;;;;;6.80;2.80;;;;;;;;;;5037228;28;20029;-77
2022/10/17 09:34:10;;;;;;;5.93;3.13;;;;;;;;;;5042586;28;20063;-79
2022/10/17 09:36:41;;;;;;;7.38;3.30;;;;;;;;;;5034143;28;20025;-78
2022/10/17 09:39:12;;;;;;;7.78;2.78;;;;;;;;;;5029365;28;20115;-78
2022/10/17 09:41:51;;;;;;;6.65;2.95;;;;;;;;;;5038776;28;20035;-78
2022/10/17 09:44:31;;;;;;;7.22;3.00;;;;;;;;;;5038898;28;20025;-78
2022/10/17 09:47:16;;;;;;;7.93;2.92;;;;;;;;;;5056479;28;20327;-78
2022/10/17 09:49:44;;;;;;;5.53;2.60;;;;;;;;;;5039187;28;20029;-79
2022/10/17 09:52:17;;;;;;;7.10;2.28;;;;;;;;;;5041431;28;20025;-78
2022/10/17 09:54:48;;;;;;;5.55;2.38;;;;;;;;;;5039586;28;20024;-78
2022/10/17 09:57:16;;;;;;;9.20;2.67;;;;;;;;;;5043611;28;20021;-78
2022/10/17 09:59:44;;;;;;;5.93;2.83;;;;;;;;;;5038557;28;20112;-78
2022/10/17 10:02:21;;;;;;;6.68;3.38;;;;;;;;;;5040351;28;20438;-78
2022/10/17 10:04:58;;;;;;;9.10;2.92;;;;;;;;;;5055694;28;20449;-78
2022/10/17 10:07:25;;;;;;;3.88;2.40;;;;;;;;;;5038733;28;20117;-78
2022/10/17 10:09:55;;;;;;;4.22;2.45;;;;;;;;;;5041132;28;20032;-78
2022/10/17 10:12:24;;;;;;;6.75;2.88;;;;;;;;;;5038739;28;20016;-79
2022/10/17 10:14:50;;;;;;;8.32;3.15;;;;;;;;;;5038366;28;20110;-78
2022/10/17 10:17:35;;;;;;;5.53;3.20;;;;;;;;;;5038881;28;20452;-79
2022/10/17 10:20:02;;;;;;;11.45;6.78;;;;;;;;;;5038827;28;20021;-78
2022/10/17 10:22:28;;;;;;;7.00;3.42;;;;;;;;;;5040307;28;20049;-79
2022/10/17 10:25:26;;;;;;;8.65;3.85;;;;;;;;;;5055719;28;20412;-78
2022/10/17 10:27:52;;;;;;;7.75;3.05;;;;;;;;;;5010456;28;20094;-78
2022/10/17 10:30:21;;;;;;;6.85;2.50;;;;;;;;;;5027222;28;20029;-79
2022/10/17 10:32:48;;;;;;;8.57;3.60;;;;;;;;;;5018371;28;20049;-79
2022/10/17 10:35:22;;;;;;;4.28;2.15;;;;;;;;;;5038017;28;20421;-78
2022/10/17 10:37:52;;;;;;;7.93;2.50;;;;;;;;;;5037774;28;20142;-79
2022/10/17 10:40:28;;;;;;;5.85;2.47;;;;;;;;;;5024516;28;20100;-78
2022/10/17 10:42:57;;;;;;;6.45;2.53;;;;;;;;;;5037810;28;20082;-79
2022/10/17 10:45:24;;;;;;;5.65;2.72;;;;;;;;;;5037423;28;20021;-79
2022/10/17 10:47:51;;;;;;;5.05;2.70;;;;;;;;;;5037868;28;20036;-78
2022/10/17 10:50:20;;;;;;;10.48;3.55;;;;;;;;;;5056422;28;20029;-79
2022/10/17 10:53:09;;;;;;;8.35;2.65;;;;;;;;;;5037817;28;20063;-79
2022/10/17 10:55:39;;;;;;;28.08;4.25;;;;;;;;;;5026378;28;20033;-78
2022/10/17 10:58:29;;;;;;;9.88;3.08;;;;;;;;;;5037736;28;20047;-78
2022/10/17 11:00:56;;;;;;;8.80;2.35;;;;;;;;;;5010789;28;20030;-78
2022/10/17 11:03:51;;;;;;;6.93;2.80;;;;;;;;;;5031773;28;20025;-78
2022/10/17 11:06:23;;;;;;;10.25;2.50;;;;;;;;;;5024937;28;20528;-79
2022/10/17 11:08:54;;;;;;;9.90;2.85;;;;;;;;;;5037397;28;20040;-79
2022/10/17 11:11:26;;;;;;;10.65;3.35;;;;;;;;;;5037861;28;20098;-78
2022/10/17 11:14:00;;;;;;;6.70;2.38;;;;;;;;;;5037736;28;20021;-78
2022/10/17 11:16:36;;;;;;;7.28;3.10;;;;;;;;;;5037669;28;20032;-79
2022/10/17 11:19:12;;;;;;;11.10;3.08;;;;;;;;;;5050731;28;20465;-79
2022/10/17 11:21:46;;;;;;;8.65;2.60;;;;;;;;;;5037253;28;20060;-80
2022/10/17 11:24:23;;;;;;;9.68;3.28;;;;;;;;;;5036828;28;20025;-79
2022/10/17 11:27:00;;;;;;;6.68;2.17;;;;;;;;;;5037099;28;20039;-79
2022/10/17 11:29:31;;;;;;;11.57;3.05;;;;;;;;;;5054299;28;20037;-79
2022/10/17 11:31:59;;;;;;;13.77;3.33;;;;;;;;;;5036662;28;20032;-79
2022/10/17 11:34:31;;;;;;;7.05;2.75;;;;;;;;;;5036938;28;20025;-78
2022/10/17 11:37:01;;;;;;;6.45;4.07;;;;;;;;;;5040546;28;20025;-79
2022/10/17 11:39:40;;;;;;;9.88;3.88;;;;;;;;;;5037820;28;20086;-79
2022/10/17 11:42:09;;;;;;;7.95;3.20;;;;;;;;;;5044222;28;20069;-79
2022/10/17 11:44:37;;;;;;;5.18;2.45;;;;;;;;;;5037095;28;20030;-79
2022/10/17 11:47:11;;;;;;;6.47;3.13;;;;;;;;;;5058488;28;20033;-78
2022/10/17 11:49:41;;;;;;;6.75;3.33;;;;;;;;;;5040623;28;20441;-79
2022/10/17 11:52:40;;;;;;;7.95;3.50;;;;;;;;;;5040638;28;20025;-79
2022/10/17 11:55:11;;;;;;;8.65;3.00;;;;;;;;;;4997034;28;20465;-79
2022/10/17 11:57:59;;;;;;;13.88;2.95;;;;;;;;;;5040692;28;20032;-79
2022/10/17 12:00:31;;;;;;;12.23;3.33;;;;;;;;;;5057855;28;20020;-79
2022/10/17 12:02:57;;;;;;;;;;;;;;;;;;5041087;28;20388;-79
2022/10/17 12:05:23;;;;;;;5.70;2.67;;;;;;;;;;5043683;28;19908;-78
2022/10/17 12:08:09;;;;;;;6.95;2.72;;;;;;;;;;5040718;28;20032;-79
2022/10/17 12:10:44;;;;;;;8.25;3.05;;;;;;;;;;5040190;28;20025;-79
2022/10/17 12:13:29;;;;;;;6.72;2.47;;;;;;;;;;5058188;28;20362;-79
2022/10/17 12:15:56;;;;;;;6.32;2.83;;;;;;;;;;5039740;28;20032;-79
2022/10/17 12:18:24;;;;;;;9.20;3.13;;;;;;;;;;5040034;28;20043;-79
2022/10/17 12:20:57;;;;;;;11.75;3.88;;;;;;;;;;5040078;28;20029;-79
2022/10/17 12:23:35;;;;;;;13.23;3.50;;;;;;;;;;5057575;28;20052;-79
2022/10/17 12:26:02;;;;;;;11.25;3.28;;;;;;;;;;5040677;28;20035;-79
2022/10/17 12:28:28;;;;;;;4.57;2.90;;;;;;;;;;5039732;28;20029;-78
2022/10/17 12:30:57;;;;;;;5.22;2.58;;;;;;;;;;5040148;28;20029;-79
2022/10/17 12:33:48;;;;;;;5.95;2.63;;;;;;;;;;5057336;28;20021;-79
2022/10/17 12:36:27;;;;;;;6.90;2.60;;;;;;;;;;5040312;28;20040;-79
2022/10/17 12:39:02;;;;;;;13.48;3.05;;;;;;;;;;5039612;28;20108;-79
2022/10/17 12:41:37;;;;;;;7.65;2.85;;;;;;;;;;5039503;28;20036;-79
2022/10/17 12:44:12;;;;;;;8.63;2.75;;;;;;;;;;5036663;28;20025;-79
2022/10/17 12:46:43;;;;;;;9.27;2.95;;;;;;;;;;5052714;28;20051;-78
2022/10/17 12:49:21;;;;;;;8.55;2.95;;;;;;;;;;5039802;28;20013;-79
2022/10/17 12:52:06;;;;;;;9.45;2.90;;;;;;;;;;5042004;28;20123;-78
2022/10/17 12:54:37;;;;;;;10.38;3.17;;;;;;;;;;5036769;28;20367;-78
2022/10/17 12:57:13;;;;;;;8.75;3.40;;;;;;;;;;5037786;28;20021;-78
2022/10/17 12:59:43;;;;;;;6.80;2.67;;;;;;;;;;5048571;28;20123;-78
2022/10/17 13:02:16;;;;;;;6.80;2.70;;;;;;;;;;5040395;28;20021;-78
2022/10/17 13:04:42;;;;;;;10.80;2.33;;;;;;;;;;5029024;28;20053;-79
2022/10/17 13:07:17;;;;;;;8.60;2.92;;;;;;;;;;5037140;28;20032;-78
2022/10/17 13:09:44;;;;;;;6.38;2.35;;;;;;;;;;5038952;28;20102;-79
2022/10/17 13:12:14;;;;;;;10.48;2.92;;;;;;;;;;5039170;28;20036;-80
2022/10/17 13:14:45;;;;;;;12.77;3.50;;;;;;;;;;5039065;28;20359;-79
2022/10/17 13:17:22;;;;;;;16.52;3.30;;;;;;;;;;5037786;28;20044;-78
2022/10/17 13:19:48;;;;;;;17.77;3.20;;;;;;;;;;5039872;28;20025;-79
2022/10/17 13:22:20;;;;;;;14.40;3.88;;;;;;;;;;5038820;28;20040;-78
2022/10/17 13:24:46;;;;;;;;;;;;;;;;;;5039384;28;20464;-79
2022/10/17 13:27:28;;;;;;;10.30;3.33;;;;;;;;;;5056270;28;19905;-79
2022/10/17 13:29:55;;;;;;;13.90;3.45;;;;;;;;;;5038670;28;20025;-78
2022/10/17 13:32:22;;;;;;;10.93;3.03;;;;;;;;;;5039014;28;20021;-79
2022/10/17 13:35:05;;;;;;;7.20;2.75;;;;;;;;;;5039532;28;20025;-79
2022/10/17 13:37:31;;;;;;;12.43;2.72;;;;;;;;;;5033412;28;20434;-78
2022/10/17 13:39:57;;;;;;;9.50;2.63;;;;;;;;;;5033233;28;20025;-78
2022/10/17 13:42:25;;;;;;;10.30;2.83;;;;;;;;;;5044593;28;20080;-78
2022/10/17 13:44:51;;;;;;;6.65;2.80;;;;;;;;;;5046694;28;20040;-78
2022/10/17 13:47:25;;;;;;;9.15;2.58;;;;;;;;;;5034854;28;20028;-77
2022/10/17 13:49:51;;;;;;;11.27;2.83;;;;;;;;;;5050293;28;20032;-77
2022/10/17 13:52:22;;;;;;;7.35;3.08;;;;;;;;;;5034024;28;20041;-79
2022/10/17 13:54:52;;;;;;;6.97;2.55;;;;;;;;;;5044853;28;20094;-78
2022/10/17 13:57:26;;;;;;;5.28;2.63;;;;;;;;;;5031023;28;20027;-79
2022/10/17 14:00:16;;;;;;;5.65;2.50;;;;;;;;;;5031105;28;20048;-80
2022/10/17 14:02:42;;;;;;;6.10;2.50;;;;;;;;;;5029450;28;20025;-78
2022/10/17 14:05:14;;;;;;;8.02;2.97;;;;;;;;;;5034570;28;20025;-80
2022/10/17 14:07:40;;;;;;;8.82;4.00;;;;;;;;;;5027834;28;20056;-79
2022/10/17 14:10:17;;;;;;;10.60;3.50;;;;;;;;;;5033272;28;20040;-78
2022/10/17 14:12:46;;;;;;;8.90;4.07;;;;;;;;;;5033633;28;20059;-78
2022/10/17 14:15:15;;;;;;;7.53;3.33;;;;;;;;;;5049810;28;20044;-79
2022/10/17 14:17:42;;;;;;;9.27;3.63;;;;;;;;;;5031277;28;20059;-78
2022/10/17 14:20:17;;;;;;;8.63;2.80;;;;;;;;;;5032883;28;20020;-78
2022/10/17 14:22:43;;;;;;;10.30;3.55;;;;;;;;;;5032277;28;20108;-80
2022/10/17 14:25:30;;;;;;;5.15;2.72;;;;;;;;;;5033272;28;20029;-78
2022/10/17 14:28:12;;;;;;;9.50;3.20;;;;;;;;;;5030946;28;20039;-79
2022/10/17 14:30:40;;;;;;;11.88;3.72;;;;;;;;;;5029167;28;21675;-78
2022/10/17 14:33:08;;;;;;;7.70;2.55;;;;;;;;;;5046655;28;20452;-78
2022/10/17 14:35:34;;;;;;;4.75;2.42;;;;;;;;;;5029658;28;20021;-79
2022/10/17 14:38:04;;;;;;;6.00;2.30;;;;;;;;;;5050411;28;20163;-79
2022/10/17 14:40:31;;;;;;;10.07;2.53;;;;;;;;;;5049881;28;20049;-79
2022/10/17 14:42:58;;;;;;;5.03;2.60;;;;;;;;;;5033315;28;20461;-78
2022/10/17 14:45:24;;;;;;;7.20;2.55;;;;;;;;;;5031746;28;20129;-78
2022/10/17 14:47:51;;;;;;;9.23;2.85;;;;;;;;;;5033637;28;20029;-79
2022/10/17 14:50:28;;;;;;;11.13;2.80;;;;;;;;;;5033492;28;20147;-80
2022/10/17 14:53:03;;;;;;;14.02;2.65;;;;;;;;;;5032718;28;20458;-80